Time;durP1;ratioP1;P1;durP2;ratioP2;P2;SDS_P1;SDS_P2;PMS_P1;PMS_P2;Temp;Humidity;BMP_temperature;BMP_pressure;BME280_temperature;BME280_humidity;BME280_pressure;Samples;Min_cycle;Max_cycle;Signal;HPM_P1;HPM_P2
2023/11/15 00:01:06;;;;;;;6.10;3.27;;;;;;;10.03;100.00;99496.28;7388245;19;20729;-67
2023/11/15 00:03:33;;;;;;;7.35;3.65;;;;;;;10.02;100.00;99497.31;7388878;19;20900;-67
2023/11/15 00:06:01;;;;;;;7.45;4.00;;;;;;;10.03;100.00;99505.06;7391629;19;20463;-67
2023/11/15 00:08:28;;;;;;;6.47;3.28;;;;;;;10.01;100.00;99525.66;7390141;19;20368;-67
2023/11/15 00:10:55;;;;;;;7.05;3.15;;;;;;;10.02;100.00;99524.63;7390033;19;20619;-67
2023/11/15 00:13:22;;;;;;;7.15;3.00;;;;;;;10.04;100.00;99519.94;7389369;19;20358;-66
2023/11/15 00:15:49;;;;;;;6.30;2.80;;;;;;;10.01;100.00;99533.59;7386519;19;20444;-66
2023/11/15 00:18:18;;;;;;;6.32;3.20;;;;;;;10.00;100.00;99537.25;7389072;19;20344;-67
2023/11/15 00:20:44;;;;;;;7.07;3.10;;;;;;;10.01;100.00;99549.50;7389341;19;20356;-66
2023/11/15 00:23:11;;;;;;;6.88;2.90;;;;;;;10.00;100.00;99553.13;7388840;19;20344;-66
2023/11/15 00:25:38;;;;;;;5.85;2.83;;;;;;;10.01;100.00;99562.75;7392404;19;20444;-66
2023/11/15 00:28:05;;;;;;;6.68;2.95;;;;;;;10.04;100.00;99557.03;7388716;19;20855;-66
2023/11/15 00:30:32;;;;;;;9.55;3.28;;;;;;;10.07;100.00;99561.91;7390732;19;20895;-65
2023/11/15 00:32:59;;;;;;;7.57;3.20;;;;;;;10.05;100.00;99582.53;7388670;19;20341;-66
2023/11/15 00:35:26;;;;;;;8.95;3.50;;;;;;;10.07;100.00;99585.75;7384909;19;20360;-66
2023/11/15 00:37:54;;;;;;;5.25;2.67;;;;;;;10.08;100.00;99576.00;7388218;19;20347;-65
2023/11/15 00:40:21;;;;;;;7.00;2.85;;;;;;;10.09;100.00;99586.38;7390063;19;20377;-65
2023/11/15 00:42:48;;;;;;;11.30;3.53;;;;;;;10.04;100.00;99591.47;7390138;19;20371;-66
2023/11/15 00:45:16;;;;;;;8.13;3.42;;;;;;;10.06;100.00;99602.69;7390082;19;20340;-65
2023/11/15 00:47:42;;;;;;;6.93;3.40;;;;;;;10.05;100.00;99601.06;7389433;19;20376;-65
2023/11/15 00:50:10;;;;;;;6.03;3.20;;;;;;;10.08;100.00;99605.97;7389582;19;20396;-65
2023/11/15 00:52:37;;;;;;;8.47;3.40;;;;;;;10.08;100.00;99636.94;7385980;19;21072;-65
2023/11/15 00:55:05;;;;;;;6.93;3.47;;;;;;;10.08;100.00;99627.16;7387627;19;20352;-65
2023/11/15 00:57:33;;;;;;;8.57;3.38;;;;;;;10.06;100.00;99633.69;7389950;19;20420;-65
2023/11/15 01:00:01;;;;;;;8.40;3.40;;;;;;;10.13;100.00;99623.91;7388146;19;20898;-65
2023/11/15 01:02:29;;;;;;;8.43;3.10;;;;;;;10.11;100.00;99634.69;7381816;19;20428;-65
2023/11/15 01:04:57;;;;;;;6.65;3.20;;;;;;;10.08;100.00;99640.41;7389418;19;20328;-65
2023/11/15 01:07:24;;;;;;;10.52;3.30;;;;;;;10.09;100.00;99651.81;7387231;19;20368;-65
2023/11/15 01:09:51;;;;;;;8.55;3.08;;;;;;;10.09;100.00;99644.69;7392333;19;20382;-65
2023/11/15 01:12:18;;;;;;;7.65;3.15;;;;;;;10.12;100.00;99654.91;7394795;19;20380;-65
2023/11/15 01:14:45;;;;;;;9.55;3.20;;;;;;;10.15;100.00;99659.78;7395556;19;20376;-65
2023/11/15 01:17:12;;;;;;;7.57;3.10;;;;;;;10.12;100.00;99660.19;7396834;19;20404;-65
2023/11/15 01:19:39;;;;;;;6.55;2.75;;;;;;;10.15;100.00;99681.00;7394311;19;20401;-65
2023/11/15 01:22:06;;;;;;;7.35;2.15;;;;;;;10.10;100.00;99701.97;7394488;19;20412;-65
2023/11/15 01:24:33;;;;;;;7.95;2.67;;;;;;;10.09;100.00;99676.47;7396234;19;21035;-64
2023/11/15 01:27:00;;;;;;;7.07;2.60;;;;;;;10.11;100.00;99669.16;7396489;19;20417;-64
2023/11/15 01:29:27;;;;;;;8.45;2.50;;;;;;;10.08;100.00;99700.53;7391630;19;20364;-65
2023/11/15 01:31:55;;;;;;;7.13;2.20;;;;;;;10.03;100.00;99695.84;7397341;19;21531;-65
2023/11/15 01:34:22;;;;;;;8.45;2.90;;;;;;;10.06;100.00;99689.31;7393474;19;20449;-65
2023/11/15 01:36:49;;;;;;;6.22;2.30;;;;;;;9.99;100.00;99691.94;7394562;19;20428;-65
2023/11/15 01:39:16;;;;;;;14.23;3.63;;;;;;;9.95;100.00;99707.41;7394689;19;20364;-64
2023/11/15 01:41:49;;;;;;;6.38;2.38;;;;;;;9.88;100.00;99701.25;7396572;19;20692;-65
2023/11/15 01:44:18;;;;;;;6.60;2.30;;;;;;;9.83;100.00;99708.13;7396378;19;20376;-65
2023/11/15 01:46:50;;;;;;;8.60;2.80;;;;;;;9.79;100.00;99708.50;7395102;19;20356;-66
2023/11/15 01:49:21;;;;;;;6.13;2.25;;;;;;;9.75;100.00;99717.88;7393377;19;20881;-66
2023/11/15 01:51:50;;;;;;;8.68;2.50;;;;;;;9.70;100.00;99724.75;7392292;19;20353;-66
2023/11/15 01:54:18;;;;;;;8.90;2.58;;;;;;;9.66;100.00;99719.03;7395817;19;20336;-66
2023/11/15 01:56:45;;;;;;;6.28;2.60;;;;;;;9.67;100.00;99718.03;7392578;19;20422;-66
2023/11/15 01:59:13;;;;;;;9.33;2.70;;;;;;;9.67;100.00;99725.97;7395055;19;20384;-66
2023/11/15 02:01:41;;;;;;;6.97;2.78;;;;;;;9.65;100.00;99727.16;7393533;19;20372;-66
2023/11/15 02:04:08;;;;;;;5.95;2.15;;;;;;;9.65;100.00;99765.06;7397926;19;20352;-66
2023/11/15 02:06:36;;;;;;;8.23;2.55;;;;;;;9.66;100.00;99732.25;7394006;19;20860;-65
2023/11/15 02:09:07;;;;;;;6.43;2.80;;;;;;;9.64;100.00;99744.88;7395507;19;20349;-66
2023/11/15 02:11:33;;;;;;;6.20;2.13;;;;;;;9.65;100.00;99750.97;7396648;19;20394;-66
2023/11/15 02:14:00;;;;;;;6.93;2.15;;;;;;;9.61;100.00;99774.41;7396855;19;20341;-65
2023/11/15 02:16:28;;;;;;;8.07;2.85;;;;;;;9.63;100.00;99747.72;7394549;19;20406;-66
2023/11/15 02:18:56;;;;;;;8.52;2.67;;;;;;;9.66;100.00;99766.69;7395174;19;20372;-66
2023/11/15 02:21:23;;;;;;;4.88;2.40;;;;;;;9.63;100.00;99764.44;7390265;19;20358;-66
2023/11/15 02:23:51;;;;;;;5.43;2.10;;;;;;;9.65;100.00;99775.66;7393815;19;20376;-66
2023/11/15 02:26:19;;;;;;;6.63;2.25;;;;;;;9.66;100.00;99771.97;7393140;19;20850;-65
2023/11/15 02:28:46;;;;;;;7.70;2.40;;;;;;;9.61;100.00;99790.28;7395828;19;20696;-66
2023/11/15 02:31:13;;;;;;;6.80;2.10;;;;;;;9.60;100.00;99788.63;7396349;19;20357;-66
2023/11/15 02:33:40;;;;;;;4.37;1.90;;;;;;;9.65;100.00;99788.06;7396113;19;20363;-66
2023/11/15 02:36:07;;;;;;;5.00;2.10;;;;;;;9.64;100.00;99795.19;7394081;19;20381;-66
2023/11/15 02:38:34;;;;;;;6.05;2.20;;;;;;;9.67;100.00;99800.13;7394190;19;20706;-65
2023/11/15 02:41:01;;;;;;;5.07;2.38;;;;;;;9.64;100.00;99805.78;7391006;19;20740;-66
2023/11/15 02:43:28;;;;;;;6.00;2.37;;;;;;;9.65;100.00;99812.72;7392945;19;20837;-66
2023/11/15 02:45:55;;;;;;;6.32;2.15;;;;;;;9.61;100.00;99822.06;7394826;19;20373;-66
2023/11/15 02:48:22;;;;;;;5.10;2.15;;;;;;;9.61;100.00;99829.19;7394053;19;20374;-66
2023/11/15 02:50:49;;;;;;;5.05;2.15;;;;;;;9.61;100.00;99837.94;7393525;19;20369;-65
2023/11/15 02:53:18;;;;;;;5.90;2.72;;;;;;;9.63;100.00;99830.63;7395962;19;20915;-66
2023/11/15 02:55:46;;;;;;;6.63;2.40;;;;;;;9.66;100.00;99837.38;7392541;19;20368;-66
2023/11/15 02:58:14;;;;;;;6.85;2.55;;;;;;;9.67;100.00;99858.38;7391885;19;20372;-66
2023/11/15 03:00:41;;;;;;;4.18;1.40;;;;;;;9.67;99.92;99858.38;7393557;19;20361;-66
2023/11/15 03:03:08;;;;;;;2.15;0.90;;;;;;;9.60;98.44;99860.13;7390444;19;20369;-66
2023/11/15 03:05:36;;;;;;;1.73;0.75;;;;;;;9.54;98.25;99868.81;7395583;19;20352;-66
2023/11/15 03:08:05;;;;;;;2.10;0.90;;;;;;;9.45;97.66;99860.19;7393639;19;20373;-66
2023/11/15 03:10:33;;;;;;;2.17;0.70;;;;;;;9.41;97.73;99873.97;7393209;19;20388;-66
2023/11/15 03:13:01;;;;;;;2.47;1.10;;;;;;;9.33;98.17;99878.41;7392426;19;20892;-66
2023/11/15 03:15:28;;;;;;;2.03;0.70;;;;;;;9.32;98.56;99889.16;7393485;19;20411;-66
2023/11/15 03:17:55;;;;;;;2.08;0.80;;;;;;;9.25;98.79;99897.03;7393372;19;20336;-66
2023/11/15 03:20:23;;;;;;;3.13;0.90;;;;;;;9.16;99.42;99898.16;7389562;19;20893;-66
2023/11/15 03:22:51;;;;;;;2.58;0.90;;;;;;;9.13;100.00;99906.44;7394575;19;20364;-66
2023/11/15 03:25:18;;;;;;;1.83;1.05;;;;;;;9.08;100.00;99895.59;7386914;19;20346;-66
2023/11/15 03:27:44;;;;;;;2.15;1.00;;;;;;;9.03;100.00;99908.56;7395670;19;20456;-70
2023/11/15 03:30:13;;;;;;;3.10;1.00;;;;;;;8.96;100.00;99911.94;7392267;19;20351;-66
2023/11/15 03:32:40;;;;;;;3.88;1.02;;;;;;;8.91;100.00;99916.97;7385242;19;20404;-67
2023/11/15 03:35:07;;;;;;;2.50;1.10;;;;;;;8.85;100.00;99922.97;7390964;19;20731;-66
2023/11/15 03:37:34;;;;;;;1.95;0.90;;;;;;;8.77;100.00;99931.00;7388014;19;20380;-67
2023/11/15 03:40:02;;;;;;;3.08;1.08;;;;;;;8.75;100.00;99920.59;7393855;19;20369;-66
2023/11/15 03:42:30;;;;;;;3.92;1.23;;;;;;;8.70;100.00;99924.81;7393435;19;20352;-67
2023/11/15 03:44:58;;;;;;;2.53;1.00;;;;;;;8.68;100.00;99926.81;7394470;19;20389;-67
2023/11/15 03:47:25;;;;;;;3.70;0.98;;;;;;;8.63;100.00;99931.81;7391721;19;20988;-67
2023/11/15 03:49:51;;;;;;;3.75;1.20;;;;;;;8.59;100.00;99935.84;7395453;19;21065;-67
2023/11/15 03:52:18;;;;;;;1.60;1.10;;;;;;;8.53;100.00;99946.13;7391417;19;20347;-67
2023/11/15 03:54:45;;;;;;;5.45;1.10;;;;;;;8.48;100.00;99959.06;7391634;19;20341;-66
2023/11/15 03:57:12;;;;;;;2.67;1.00;;;;;;;8.48;100.00;99952.94;7389697;19;20375;-67
2023/11/15 03:59:39;;;;;;;2.67;1.00;;;;;;;8.45;100.00;99962.03;7392288;19;20356;-66
2023/11/15 04:02:06;;;;;;;4.65;1.00;;;;;;;8.43;100.00;99977.25;7388741;19;20360;-66
2023/11/15 04:04:33;;;;;;;4.63;1.30;;;;;;;8.36;100.00;99971.03;7393928;19;20364;-66
2023/11/15 04:07:01;;;;;;;5.43;1.40;;;;;;;8.38;100.00;99974.31;7389657;19;20420;-66
2023/11/15 04:09:28;;;;;;;3.72;1.20;;;;;;;8.39;100.00;99981.22;7392377;19;20416;-66
2023/11/15 04:11:55;;;;;;;3.33;1.40;;;;;;;8.43;100.00;99979.91;7388372;19;20392;-66
2023/11/15 04:14:24;;;;;;;5.05;1.30;;;;;;;8.42;100.00;99986.19;7389613;19;20324;-66
2023/11/15 04:16:52;;;;;;;3.17;1.50;;;;;;;8.45;100.00;99996.41;7389608;19;20403;-66
2023/11/15 04:19:23;;;;;;;9.43;1.60;;;;;;;8.47;100.00;99998.88;7391428;19;20404;-65
2023/11/15 04:21:51;;;;;;;5.03;1.20;;;;;;;8.46;100.00;100002.50;7390116;19;20509;-66
2023/11/15 04:24:38;;;;;;;4.70;1.40;;;;;;;8.46;100.00;100008.63;7392034;19;20421;-65
2023/11/15 04:27:06;;;;;;;3.60;1.20;;;;;;;8.46;100.00;100010.44;7390714;19;20400;-66
2023/11/15 04:29:33;;;;;;;3.78;1.23;;;;;;;8.40;100.00;100021.72;7392490;19;20816;-66
2023/11/15 04:32:00;;;;;;;4.78;1.42;;;;;;;8.41;100.00;100016.25;7391004;19;20360;-66
2023/11/15 04:34:27;;;;;;;6.85;1.63;;;;;;;8.41;100.00;100026.81;7391015;19;20354;-66
2023/11/15 04:36:54;;;;;;;4.60;1.10;;;;;;;8.41;100.00;100026.00;7391504;19;20341;-66
2023/11/15 04:39:22;;;;;;;3.00;0.90;;;;;;;8.35;100.00;100036.28;7391789;19;20389;-66
2023/11/15 04:41:49;;;;;;;3.43;0.90;;;;;;;8.37;100.00;100041.38;7391416;19;20468;-66
2023/11/15 04:44:16;;;;;;;4.28;1.58;;;;;;;8.36;100.00;100045.03;7388047;19;20897;-66
2023/11/15 04:46:43;;;;;;;3.80;1.20;;;;;;;8.33;100.00;100040.06;7391425;19;20404;-66
2023/11/15 04:49:10;;;;;;;4.00;1.23;;;;;;;8.32;100.00;100051.66;7389236;19;20361;-66
2023/11/15 04:51:36;;;;;;;12.55;2.72;;;;;;;8.31;100.00;100052.66;7390023;19;20840;-66
2023/11/15 04:54:05;;;;;;;21.97;5.13;;;;;;;8.34;100.00;100057.59;7388386;19;20376;-66
2023/11/15 04:56:34;;;;;;;27.88;6.28;;;;;;;8.34;100.00;100063.69;7391679;19;20397;-66
2023/11/15 04:59:02;;;;;;;22.23;5.07;;;;;;;8.38;100.00;100061.53;7390387;19;20920;-66
2023/11/15 05:01:29;;;;;;;9.55;2.47;;;;;;;8.38;100.00;100064.16;7391562;19;20405;-66
2023/11/15 05:03:55;;;;;;;8.05;2.60;;;;;;;8.41;100.00;100061.19;7388391;19;20393;-65
2023/11/15 05:06:23;;;;;;;4.97;1.65;;;;;;;8.41;100.00;100063.84;7389199;19;20702;-66
2023/11/15 05:08:49;;;;;;;11.82;2.63;;;;;;;8.44;100.00;100078.53;7390723;19;20369;-66
2023/11/15 05:11:16;;;;;;;9.40;2.67;;;;;;;8.46;100.00;100072.06;7388530;19;20368;-66
2023/11/15 05:13:46;;;;;;;12.00;2.60;;;;;;;8.48;100.00;100085.09;7391410;19;20371;-66
2023/11/15 05:16:13;;;;;;;7.95;2.45;;;;;;;8.49;100.00;100086.75;7390656;19;20377;-66
2023/11/15 05:18:39;;;;;;;6.72;1.80;;;;;;;8.49;100.00;100095.50;7391406;19;20376;-66
2023/11/15 05:21:06;;;;;;;5.87;1.70;;;;;;;8.44;100.00;100107.63;7390386;19;20361;-66
2023/11/15 05:23:33;;;;;;;4.20;1.90;;;;;;;8.49;100.00;100108.72;7386352;19;20404;-66
2023/11/15 05:26:01;;;;;;;3.92;1.80;;;;;;;8.51;100.00;100111.19;7390750;19;20349;-66
2023/11/15 05:28:28;;;;;;;6.43;2.20;;;;;;;8.50;100.00;100115.66;7387472;19;20403;-66
2023/11/15 05:30:55;;;;;;;6.47;2.65;;;;;;;8.52;100.00;100113.66;7389860;19;20360;-66
2023/11/15 05:33:21;;;;;;;13.48;3.78;;;;;;;8.56;100.00;100116.75;7387754;19;20368;-66
2023/11/15 05:35:48;;;;;;;7.05;2.97;;;;;;;8.58;100.00;100109.47;7388963;19;20395;-65
2023/11/15 05:38:15;;;;;;;6.72;3.15;;;;;;;8.61;100.00;100111.78;7388960;19;20407;-66
2023/11/15 05:40:43;;;;;;;7.75;3.10;;;;;;;8.63;100.00;100127.44;7388174;19;20348;-66
2023/11/15 05:43:10;;;;;;;10.52;3.65;;;;;;;8.69;100.00;100126.75;7391030;19;20432;-66
2023/11/15 05:45:37;;;;;;;7.53;3.30;;;;;;;8.73;100.00;100130.69;7385729;19;20404;-66
2023/11/15 05:48:04;;;;;;;7.93;3.38;;;;;;;8.76;100.00;100131.16;7391208;19;20348;-66
2023/11/15 05:50:32;;;;;;;8.10;3.50;;;;;;;8.78;100.00;100134.47;7392164;19;20417;-66
2023/11/15 05:52:58;;;;;;;6.57;3.33;;;;;;;8.81;100.00;100138.56;7390648;19;20365;-66
2023/11/15 05:55:25;;;;;;;6.32;3.55;;;;;;;8.85;100.00;100139.84;7391888;19;20356;-66
2023/11/15 05:57:52;;;;;;;6.80;3.17;;;;;;;8.86;100.00;100154.75;7396298;19;20357;-66
2023/11/15 06:00:20;;;;;;;4.63;3.15;;;;;;;8.86;100.00;100149.44;7391488;19;20920;-66
2023/11/15 06:02:47;;;;;;;6.22;3.08;;;;;;;8.84;100.00;100148.81;7394699;19;20384;-66
2023/11/15 06:05:16;;;;;;;7.38;3.38;;;;;;;8.85;100.00;100155.72;7398242;19;20891;-66
2023/11/15 06:07:43;;;;;;;5.75;3.55;;;;;;;8.88;100.00;100158.03;7398832;19;20438;-66
2023/11/15 06:10:11;;;;;;;6.37;3.63;;;;;;;8.87;100.00;100158.19;7397741;19;20843;-66
2023/11/15 06:12:41;;;;;;;5.82;4.20;;;;;;;8.89;100.00;100157.03;7398985;19;20344;-65
2023/11/15 06:15:09;;;;;;;8.98;4.47;;;;;;;8.86;100.00;100165.31;7400570;19;20449;-66
2023/11/15 06:17:36;;;;;;;5.70;4.28;;;;;;;8.87;100.00;100166.94;7395631;19;20381;-65
2023/11/15 06:20:05;;;;;;;7.03;4.00;;;;;;;8.89;100.00;100172.88;7395678;19;20368;-66
2023/11/15 06:22:33;;;;;;;7.43;4.60;;;;;;;8.91;100.00;100173.53;7396520;19;20373;-66
2023/11/15 06:25:00;;;;;;;11.02;4.93;;;;;;;8.94;100.00;100173.16;7396357;19;20344;-66
2023/11/15 06:27:27;;;;;;;6.85;4.45;;;;;;;8.96;100.00;100173.81;7397718;19;20681;-66
2023/11/15 06:29:55;;;;;;;5.88;4.60;;;;;;;8.97;100.00;100175.47;7396359;19;20379;-66
2023/11/15 06:32:23;;;;;;;6.97;4.40;;;;;;;9.01;100.00;100185.69;7397970;19;20344;-65
2023/11/15 06:34:52;;;;;;;10.00;6.03;;;;;;;9.00;100.00;100190.16;7399611;19;20389;-66
2023/11/15 06:37:19;;;;;;;10.93;6.00;;;;;;;9.00;100.00;100192.00;7395320;19;20936;-65
2023/11/15 06:39:48;;;;;;;11.50;5.80;;;;;;;8.95;100.00;100193.34;7395903;19;20738;-66
2023/11/15 06:42:15;;;;;;;9.60;6.07;;;;;;;8.91;100.00;100192.06;7398177;19;20352;-65
2023/11/15 06:44:42;;;;;;;17.95;8.13;;;;;;;8.81;100.00;100202.03;7398292;19;20451;-65
2023/11/15 06:47:09;;;;;;;13.68;7.22;;;;;;;8.77;100.00;100208.66;7396631;19;20820;-65
2023/11/15 06:49:36;;;;;;;15.50;7.53;;;;;;;8.79;100.00;100204.03;7394378;19;20450;-65
2023/11/15 06:52:05;;;;;;;11.32;6.43;;;;;;;8.78;100.00;100207.69;7393333;19;20710;-66
2023/11/15 06:54:32;;;;;;;8.82;5.95;;;;;;;8.81;100.00;100211.81;7389936;19;20492;-65
2023/11/15 06:56:59;;;;;;;9.43;6.53;;;;;;;8.84;100.00;100232.59;7393161;19;20762;-65
2023/11/15 06:59:26;;;;;;;10.60;7.05;;;;;;;8.83;100.00;100231.78;7397789;19;20362;-65
2023/11/15 07:01:53;;;;;;;10.60;6.35;;;;;;;8.84;100.00;100238.72;7398173;19;20352;-65
2023/11/15 07:04:21;;;;;;;9.55;6.50;;;;;;;8.84;100.00;100236.09;7396397;19;20381;-65
2023/11/15 07:06:49;;;;;;;8.65;6.32;;;;;;;8.87;100.00;100242.84;7395519;19;20887;-65
2023/11/15 07:09:16;;;;;;;13.38;7.10;;;;;;;8.91;100.00;100244.97;7394591;19;20376;-65
2023/11/15 07:11:47;;;;;;;10.32;7.28;;;;;;;8.91;100.00;100257.38;7396812;19;20347;-65
2023/11/15 07:14:14;;;;;;;9.50;6.90;;;;;;;8.91;100.00;100247.59;7392963;19;20398;-65
2023/11/15 07:16:55;;;;;;;8.75;6.20;;;;;;;8.93;100.00;100248.25;7397590;19;20369;-65
2023/11/15 07:19:24;;;;;;;9.80;5.88;;;;;;;8.93;100.00;100247.44;7395734;19;21003;-65
2023/11/15 07:21:55;;;;;;;7.35;5.25;;;;;;;8.91;100.00;100255.53;7395523;19;20379;-65
2023/11/15 07:24:21;;;;;;;7.30;5.88;;;;;;;8.92;100.00;100257.16;7394085;19;20344;-65
2023/11/15 07:26:48;;;;;;;8.95;6.60;;;;;;;8.93;100.00;100256.19;7395702;19;20756;-65
2023/11/15 07:29:18;;;;;;;10.20;7.53;;;;;;;8.92;100.00;100254.53;7395190;19;20905;-65
2023/11/15 07:31:52;;;;;;;10.43;7.85;;;;;;;8.96;100.00;100261.13;7395977;19;20750;-65
2023/11/15 07:34:24;;;;;;;10.73;7.13;;;;;;;8.97;100.00;100257.50;7393906;19;20410;-64
2023/11/15 07:36:58;;;;;;;12.43;6.90;;;;;;;9.02;100.00;100266.72;7397074;19;20376;-65
2023/11/15 07:39:25;;;;;;;8.90;6.70;;;;;;;9.07;100.00;100269.66;7396024;19;20389;-65
2023/11/15 07:41:54;;;;;;;8.30;5.77;;;;;;;9.08;100.00;100266.03;7394465;19;20401;-65
2023/11/15 07:44:21;;;;;;;9.45;6.20;;;;;;;9.13;100.00;100282.19;7394388;19;20376;-65
2023/11/15 07:46:51;;;;;;;8.40;5.70;;;;;;;9.17;100.00;100281.66;7394074;19;20448;-65
2023/11/15 07:49:20;;;;;;;10.52;7.07;;;;;;;9.22;100.00;100281.13;7392687;19;20352;-65
2023/11/15 07:51:48;;;;;;;10.48;7.60;;;;;;;9.32;100.00;100288.84;7392069;19;20356;-65
2023/11/15 07:54:15;;;;;;;11.73;8.60;;;;;;;9.36;100.00;100293.59;7390579;19;20359;-65
2023/11/15 07:56:42;;;;;;;10.95;8.50;;;;;;;9.42;100.00;100296.56;7393139;19;20873;-65
2023/11/15 07:59:10;;;;;;;11.50;7.75;;;;;;;9.47;100.00;100300.31;7391181;19;20373;-65
2023/11/15 08:01:40;;;;;;;10.23;6.55;;;;;;;9.53;100.00;100302.25;7393896;19;20368;-65
2023/11/15 08:04:11;;;;;;;8.52;5.65;;;;;;;9.57;100.00;100310.66;7393691;19;20676;-65
2023/11/15 08:06:39;;;;;;;7.97;5.45;;;;;;;9.56;100.00;100320.44;7392327;19;20405;-64
2023/11/15 08:09:07;;;;;;;7.20;5.53;;;;;;;9.58;99.72;100320.25;7388098;19;20351;-65
2023/11/15 08:11:37;;;;;;;8.95;6.68;;;;;;;9.59;99.88;100320.06;7393996;19;20376;-65
2023/11/15 08:14:06;;;;;;;12.75;7.30;;;;;;;9.61;99.68;100333.16;7395689;19;20652;-65
2023/11/15 08:16:33;;;;;;;8.73;6.47;;;;;;;9.61;99.73;100343.75;7395582;19;20364;-65
2023/11/15 08:19:04;;;;;;;9.70;5.80;;;;;;;9.63;99.87;100333.78;7393106;19;20377;-65
2023/11/15 08:21:31;;;;;;;6.88;4.72;;;;;;;9.67;100.00;100340.38;7392015;19;20447;-65
2023/11/15 08:23:58;;;;;;;5.33;4.17;;;;;;;9.71;99.69;100344.31;7390632;19;20385;-65
2023/11/15 08:26:26;;;;;;;8.02;4.40;;;;;;;9.73;99.55;100350.28;7390937;19;20389;-65
2023/11/15 08:28:53;;;;;;;6.67;4.27;;;;;;;9.78;99.59;100342.59;7392443;19;20431;-65
2023/11/15 08:31:23;;;;;;;10.23;4.43;;;;;;;9.87;99.79;100347.84;7393540;19;20411;-65
2023/11/15 08:33:50;;;;;;;7.43;4.53;;;;;;;9.96;99.92;100350.22;7392082;19;20863;-64
2023/11/15 08:36:17;;;;;;;6.30;4.18;;;;;;;10.03;99.29;100353.00;7393096;19;20389;-65
2023/11/15 08:38:44;;;;;;;6.13;4.30;;;;;;;10.07;98.93;100361.38;7389428;19;20447;-64
2023/11/15 08:41:16;;;;;;;6.25;4.22;;;;;;;10.09;98.62;100360.19;7393097;19;20352;-65
2023/11/15 08:43:43;;;;;;;10.23;4.68;;;;;;;10.11;98.73;100350.25;7395114;19;20364;-65
2023/11/15 08:46:10;;;;;;;8.98;4.70;;;;;;;10.13;98.67;100356.19;7389924;19;20374;-65
2023/11/15 08:48:37;;;;;;;6.13;4.32;;;;;;;10.11;98.35;100354.72;7391768;19;20445;-64
2023/11/15 08:51:04;;;;;;;6.82;4.90;;;;;;;10.12;98.56;100359.03;7391766;19;20359;-64
2023/11/15 08:53:31;;;;;;;8.82;4.93;;;;;;;10.13;98.57;100361.50;7389456;19;20381;-65
2023/11/15 08:55:58;;;;;;;8.45;5.45;;;;;;;10.19;98.56;100359.97;7391654;19;20381;-64
2023/11/15 08:58:27;;;;;;;9.70;5.03;;;;;;;10.19;98.39;100358.13;7391102;19;20447;-65
2023/11/15 09:01:01;;;;;;;8.77;5.00;;;;;;;10.25;98.38;100363.72;7391662;19;20379;-65
2023/11/15 09:03:28;;;;;;;8.73;5.13;;;;;;;10.36;99.14;100368.59;7388179;19;20375;-64
2023/11/15 09:05:55;;;;;;;7.25;5.13;;;;;;;10.43;98.53;100377.47;7390483;19;20365;-65
2023/11/15 09:08:22;;;;;;;14.27;5.13;;;;;;;10.44;97.87;100379.13;7384780;19;20860;-64
2023/11/15 09:10:52;;;;;;;7.83;5.27;;;;;;;10.50;97.37;100378.41;7390887;19;20915;-64
2023/11/15 09:13:19;;;;;;;7.45;4.95;;;;;;;10.55;97.15;100385.81;7391548;19;20438;-64
2023/11/15 09:15:50;;;;;;;8.30;4.65;;;;;;;10.58;96.99;100386.28;7390727;19;20368;-64
2023/11/15 09:18:23;;;;;;;8.32;4.97;;;;;;;10.61;96.72;100379.78;7392779;19;20344;-64
2023/11/15 09:20:52;;;;;;;8.50;5.53;;;;;;;10.63;95.94;100388.38;7388679;19;20427;-65
2023/11/15 09:23:22;;;;;;;11.52;6.38;;;;;;;10.67;96.41;100388.81;7388363;19;20376;-64
2023/11/15 09:25:59;;;;;;;11.52;7.95;;;;;;;10.67;95.53;100388.81;7390069;19;20360;-65
2023/11/15 09:28:27;;;;;;;11.30;7.20;;;;;;;10.67;95.50;100400.28;7390272;19;20438;-64
2023/11/15 09:30:54;;;;;;;10.73;7.95;;;;;;;10.63;95.25;100406.13;7395795;19;20422;-64
2023/11/15 09:33:21;;;;;;;13.18;9.25;;;;;;;10.56;94.89;100398.91;7397303;19;20930;-64
2023/11/15 09:35:48;;;;;;;11.45;8.48;;;;;;;10.51;95.09;100405.75;7398440;19;20356;-65
2023/11/15 09:38:26;;;;;;;10.98;8.23;;;;;;;10.44;95.14;100395.03;7394677;19;20384;-63
2023/11/15 09:40:53;;;;;;;11.07;8.18;;;;;;;10.46;95.83;100408.94;7397677;19;20360;-64
2023/11/15 09:43:20;;;;;;;12.35;8.52;;;;;;;10.43;95.74;100403.16;7397855;19;20356;-64
2023/11/15 09:45:48;;;;;;;12.75;8.75;;;;;;;10.37;95.99;100415.31;7394070;19;20865;-65
2023/11/15 09:48:15;;;;;;;12.37;8.53;;;;;;;10.38;96.50;100403.72;7397366;19;20503;-64
2023/11/15 09:50:48;;;;;;;11.20;7.57;;;;;;;10.41;96.62;100406.00;7397649;19;20364;-64
2023/11/15 09:53:19;;;;;;;10.18;7.18;;;;;;;10.43;96.83;100414.59;7396757;19;20408;-64
2023/11/15 09:55:47;;;;;;;10.40;6.97;;;;;;;10.45;96.84;100423.19;7395819;19;20360;-64
2023/11/15 09:58:14;;;;;;;8.77;6.83;;;;;;;10.49;97.00;100418.34;7396616;19;20383;-65
2023/11/15 10:00:41;;;;;;;15.77;6.15;;;;;;;10.55;96.72;100413.16;7394525;19;20718;-65
2023/11/15 10:03:08;;;;;;;8.05;5.78;;;;;;;10.64;97.27;100415.72;7394328;19;20376;-65
2023/11/15 10:05:35;;;;;;;7.93;4.95;;;;;;;10.71;96.82;100413.97;7398456;19;20424;-64
2023/11/15 10:08:08;;;;;;;6.75;4.28;;;;;;;10.81;96.67;100417.19;7398393;19;20377;-65
2023/11/15 10:10:35;;;;;;;6.63;4.47;;;;;;;10.84;95.51;100422.16;7394020;19;20372;-65
2023/11/15 10:13:14;;;;;;;5.93;4.13;;;;;;;10.92;95.78;100415.91;7395578;19;20356;-65
2023/11/15 10:15:43;;;;;;;5.90;4.47;;;;;;;10.99;95.29;100420.28;7398021;19;20757;-64
2023/11/15 10:18:15;;;;;;;5.25;4.10;;;;;;;10.99;94.64;100424.78;7396075;19;20376;-64
2023/11/15 10:20:43;;;;;;;5.22;3.72;;;;;;;11.11;94.95;100422.47;7388930;19;20360;-64
2023/11/15 10:23:12;;;;;;;5.38;4.20;;;;;;;11.23;95.12;100416.50;7389813;19;20368;-64
2023/11/15 10:25:52;;;;;;;6.15;4.35;;;;;;;11.37;93.71;100412.19;7395929;19;20450;-64
2023/11/15 10:28:22;;;;;;;4.28;3.40;;;;;;;11.36;91.72;100421.16;7396368;19;20926;-62
2023/11/15 10:31:06;;;;;;;4.70;3.08;;;;;;;11.30;91.15;100416.56;7396448;19;20415;-64
2023/11/15 10:33:34;;;;;;;5.67;3.40;;;;;;;11.27;91.61;100421.47;7396914;19;20385;-63
2023/11/15 10:36:16;;;;;;;6.15;2.85;;;;;;;11.34;91.64;100412.53;7393040;19;20395;-63
2023/11/15 10:39:01;;;;;;;5.22;3.25;;;;;;;11.39;91.21;100410.16;7393486;19;20380;-63
2023/11/15 10:41:30;;;;;;;4.70;3.40;;;;;;;11.56;90.91;100404.59;7396510;19;20389;-63
2023/11/15 10:43:57;;;;;;;4.40;2.93;;;;;;;11.64;90.18;100412.44;7397539;19;20348;-63
2023/11/15 10:46:30;;;;;;;6.72;3.97;;;;;;;11.67;90.37;100413.91;7396649;19;20369;-63
2023/11/15 10:48:59;;;;;;;7.03;4.60;;;;;;;11.63;89.58;100410.81;7397866;19;20458;-63
2023/11/15 10:51:44;;;;;;;5.65;4.43;;;;;;;11.56;89.06;100410.75;7396944;19;20372;-63
2023/11/15 10:54:13;;;;;;;6.18;4.40;;;;;;;11.56;89.75;100415.22;7394558;19;20444;-63
2023/11/15 10:56:41;;;;;;;6.88;4.70;;;;;;;11.61;90.19;100418.16;7396300;19;20353;-63
2023/11/15 10:59:13;;;;;;;5.72;4.40;;;;;;;11.69;90.29;100422.50;7396486;19;20511;-62
2023/11/15 11:01:41;;;;;;;6.93;5.13;;;;;;;11.62;88.86;100417.97;7395553;19;20339;-64
2023/11/15 11:04:10;;;;;;;5.68;4.60;;;;;;;11.63;89.46;100416.13;7396576;19;20415;-63
2023/11/15 11:06:47;;;;;;;8.55;5.65;;;;;;;11.64;89.46;100412.44;7397427;19;20376;-63
2023/11/15 11:09:39;;;;;;;5.38;2.67;;;;;;;11.66;88.90;100415.75;7395104;19;20352;-64
2023/11/15 11:12:11;;;;;;;4.68;2.83;;;;;;;11.61;88.01;100411.00;7396892;19;20471;-64
2023/11/15 11:14:41;;;;;;;6.43;3.13;;;;;;;11.63;88.58;100410.81;7394263;19;20353;-63
2023/11/15 11:17:32;;;;;;;4.95;3.22;;;;;;;11.67;89.05;100417.41;7396168;19;20348;-63
2023/11/15 11:20:00;;;;;;;4.95;2.75;;;;;;;11.72;88.41;100415.00;7395380;19;20369;-62
2023/11/15 11:22:29;;;;;;;5.50;2.67;;;;;;;11.75;88.18;100411.97;7394500;19;20931;-63
2023/11/15 11:25:17;;;;;;;6.40;2.88;;;;;;;11.82;88.34;100426.13;7396249;19;20432;-63
2023/11/15 11:27:55;;;;;;;5.20;2.42;;;;;;;11.74;87.27;100423.59;7388857;19;20455;-62
2023/11/15 11:30:23;;;;;;;3.92;2.10;;;;;;;11.77;87.06;100422.41;7394261;19;20700;-62
2023/11/15 11:33:18;;;;;;;3.30;1.80;;;;;;;11.75;87.02;100417.28;7392097;19;20345;-63